Time;durP1;ratioP1;P1;durP2;ratioP2;P2;SDS_P1;SDS_P2;PMS_P1;PMS_P2;Temp;Humidity;BMP_temperature;BMP_pressure;BME280_temperature;BME280_humidity;BME280_pressure;Samples;Min_cycle;Max_cycle;Signal;HPM_P1;HPM_P2
2024/01/30 00:00:25;;;;;;;28.13;25.35;;;6.40;99.90;;;;;;5025751;27;20033;-70
2024/01/30 00:02:50;;;;;;;28.80;25.90;;;6.40;99.90;;;;;;5039458;27;20045;-71
2024/01/30 00:05:16;;;;;;;27.73;24.92;;;6.50;99.90;;;;;;5036416;27;20114;-71
2024/01/30 00:07:42;;;;;;;30.10;27.13;;;6.40;99.90;;;;;;5039172;27;20173;-70
2024/01/30 00:10:08;;;;;;;30.17;27.05;;;6.30;99.90;;;;;;5051630;27;20052;-71
2024/01/30 00:12:33;;;;;;;30.42;27.58;;;6.30;99.90;;;;;;5022215;28;20124;-71
2024/01/30 00:14:59;;;;;;;27.80;25.00;;;6.40;99.90;;;;;;5023522;27;20067;-71
2024/01/30 00:17:26;;;;;;;27.50;24.70;;;6.40;99.90;;;;;;5024878;28;20071;-74
2024/01/30 00:19:51;;;;;;;27.08;24.45;;;6.30;99.90;;;;;;5038795;27;20045;-71
2024/01/30 00:22:17;;;;;;;32.08;25.50;;;6.40;99.90;;;;;;5021842;28;20064;-71
2024/01/30 00:24:43;;;;;;;27.02;24.30;;;6.40;99.90;;;;;;5025446;28;20049;-70
2024/01/30 00:27:09;;;;;;;27.35;24.55;;;6.40;99.90;;;;;;5048289;27;20262;-70
2024/01/30 00:29:35;;;;;;;28.08;25.17;;;6.40;99.90;;;;;;5025427;27;20761;-71
2024/01/30 00:32:04;;;;;;;28.67;25.80;;;6.40;99.90;;;;;;5023451;28;20037;-70
2024/01/30 00:34:29;;;;;;;28.05;25.23;;;6.30;99.90;;;;;;5038055;27;20045;-73
2024/01/30 00:36:55;;;;;;;28.30;25.60;;;6.30;99.90;;;;;;5053989;27;20499;-70
2024/01/30 00:39:21;;;;;;;27.50;24.63;;;6.30;99.90;;;;;;5044468;27;20114;-70
2024/01/30 00:41:47;;;;;;;27.02;24.27;;;6.20;99.90;;;;;;5044129;27;20380;-70
2024/01/30 00:44:13;;;;;;;28.13;25.25;;;6.20;99.90;;;;;;5044583;27;20094;-70
2024/01/30 00:46:38;;;;;;;28.63;25.73;;;6.00;99.90;;;;;;5040234;27;20040;-70
2024/01/30 00:49:04;;;;;;;28.30;25.25;;;6.10;99.90;;;;;;5021299;27;20060;-70
2024/01/30 00:51:33;;;;;;;26.75;24.15;;;6.00;99.90;;;;;;5038661;27;20110;-71
2024/01/30 00:53:59;;;;;;;29.48;26.52;;;6.00;99.90;;;;;;5037156;27;20110;-70
2024/01/30 00:56:24;;;;;;;27.38;24.58;;;5.90;99.90;;;;;;5036077;27;20507;-70
2024/01/30 00:58:50;;;;;;;28.48;25.70;;;5.90;99.90;;;;;;5030628;27;20143;-70
2024/01/30 01:01:16;;;;;;;29.67;26.73;;;5.90;99.90;;;;;;5021174;28;20121;-70
2024/01/30 01:03:43;;;;;;;28.25;25.55;;;5.90;99.90;;;;;;5044448;27;20037;-71
2024/01/30 01:06:09;;;;;;;29.33;26.45;;;5.90;99.90;;;;;;5045958;27;20056;-70
2024/01/30 01:08:35;;;;;;;30.52;26.67;;;5.90;99.90;;;;;;5040643;27;20094;-70
2024/01/30 01:11:01;;;;;;;29.60;26.83;;;5.90;99.90;;;;;;5021646;28;20041;-70
2024/01/30 01:13:26;;;;;;;30.20;27.23;;;5.90;99.90;;;;;;5044167;27;20043;-70
2024/01/30 01:15:52;;;;;;;27.15;24.42;;;6.00;99.90;;;;;;5036345;27;20049;-70
2024/01/30 01:18:18;;;;;;;28.30;25.60;;;6.00;99.90;;;;;;5038666;27;20113;-70
2024/01/30 01:20:44;;;;;;;28.05;25.15;;;6.00;99.90;;;;;;5042576;27;20044;-70
2024/01/30 01:23:12;;;;;;;26.40;23.88;;;6.00;99.90;;;;;;5028877;27;20654;-71
2024/01/30 01:25:38;;;;;;;28.42;25.67;;;6.00;99.90;;;;;;5025429;28;20033;-70
2024/01/30 01:28:04;;;;;;;28.50;25.67;;;6.00;99.90;;;;;;5041329;27;20048;-70
2024/01/30 01:30:30;;;;;;;28.85;25.98;;;6.00;99.90;;;;;;5060247;27;20562;-70
2024/01/30 01:32:57;;;;;;;27.70;24.98;;;6.00;99.90;;;;;;5022828;28;20483;-70
2024/01/30 01:35:27;;;;;;;30.17;27.17;;;6.10;99.90;;;;;;5041562;27;21634;-71
2024/01/30 01:37:57;;;;;;;28.88;25.80;;;6.10;99.90;;;;;;5050174;27;20048;-70
2024/01/30 01:40:24;;;;;;;;;;;6.00;99.90;;;;;;5042413;27;20045;-71
2024/01/30 01:42:52;;;;;;;26.17;23.40;;;6.00;99.90;;;;;;5123447;27;19964;-71
2024/01/30 01:45:18;;;;;;;26.55;23.95;;;6.00;99.90;;;;;;5038086;27;20101;-71
2024/01/30 01:47:45;;;;;;;29.40;26.58;;;6.00;99.90;;;;;;5042470;27;20491;-70
2024/01/30 01:50:13;;;;;;;30.45;27.17;;;6.00;99.90;;;;;;5043808;27;20562;-73
2024/01/30 01:52:41;;;;;;;27.63;24.90;;;6.00;99.90;;;;;;5037315;27;20068;-73
2024/01/30 01:55:07;;;;;;;26.45;23.95;;;6.00;99.90;;;;;;5043102;27;20086;-74
2024/01/30 01:57:33;;;;;;;28.65;25.95;;;6.00;99.90;;;;;;5029262;28;20041;-74
2024/01/30 02:00:02;;;;;;;29.25;26.15;;;6.10;99.90;;;;;;5038288;27;20470;-74
2024/01/30 02:02:30;;;;;;;28.92;26.02;;;6.00;99.90;;;;;;5044139;27;20154;-73
2024/01/30 02:04:58;;;;;;;28.25;25.35;;;6.00;99.90;;;;;;5028012;27;20059;-74
2024/01/30 02:07:24;;;;;;;29.02;26.13;;;6.00;99.90;;;;;;5034307;27;20820;-75
2024/01/30 02:09:49;;;;;;;27.33;24.55;;;6.00;99.90;;;;;;5043036;27;20044;-74
2024/01/30 02:12:15;;;;;;;27.15;24.55;;;6.00;99.90;;;;;;5025818;27;20515;-75
2024/01/30 02:14:48;;;;;;;26.90;24.15;;;6.00;99.90;;;;;;5016553;27;20041;-74
2024/01/30 02:17:15;;;;;;;30.15;27.10;;;6.00;99.90;;;;;;5025364;27;20044;-74
2024/01/30 02:19:41;;;;;;;29.08;26.17;;;6.00;99.90;;;;;;5039620;27;20038;-73
2024/01/30 02:22:07;;;;;;;24.63;22.33;;;6.00;99.90;;;;;;5036781;27;20064;-69
2024/01/30 02:24:33;;;;;;;25.17;22.63;;;6.10;99.90;;;;;;5042674;27;20722;-69
2024/01/30 02:26:59;;;;;;;29.38;26.33;;;6.00;99.90;;;;;;5025549;28;20145;-69
2024/01/30 02:29:25;;;;;;;27.42;24.65;;;6.00;99.90;;;;;;5040688;27;20041;-69
2024/01/30 02:31:51;;;;;;;28.58;25.60;;;6.00;99.90;;;;;;5022815;28;20095;-69
2024/01/30 02:34:19;;;;;;;27.52;24.75;;;6.10;99.90;;;;;;5027272;27;20052;-71
2024/01/30 02:36:45;;;;;;;26.23;23.52;;;6.10;99.90;;;;;;5025066;27;20495;-71
2024/01/30 02:39:10;;;;;;;26.38;23.77;;;6.00;99.90;;;;;;5037580;27;20044;-69
2024/01/30 02:41:37;;;;;;;25.73;23.27;;;6.00;99.90;;;;;;5136277;27;20045;-69
2024/01/30 02:44:04;;;;;;;26.25;23.65;;;6.00;99.90;;;;;;5050935;27;20134;-69
2024/01/30 02:46:29;;;;;;;27.33;24.55;;;6.00;99.90;;;;;;5023499;28;20104;-69
2024/01/30 02:48:55;;;;;;;26.70;24.10;;;6.00;99.90;;;;;;5040988;27;20454;-69
2024/01/30 02:51:21;;;;;;;27.45;24.85;;;6.10;99.90;;;;;;5031668;27;20053;-69
2024/01/30 02:53:47;;;;;;;26.67;24.00;;;6.00;99.90;;;;;;5029603;27;20049;-69
2024/01/30 02:56:13;;;;;;;26.80;24.10;;;6.00;99.90;;;;;;5043781;28;20201;-70
2024/01/30 02:58:42;;;;;;;27.58;24.70;;;6.00;99.90;;;;;;5052631;27;20508;-70
2024/01/30 03:01:08;;;;;;;27.92;24.95;;;6.00;99.90;;;;;;5043803;27;20181;-70
2024/01/30 03:03:36;;;;;;;27.48;24.77;;;6.00;99.90;;;;;;5036019;27;20123;-70
2024/01/30 03:06:02;;;;;;;28.20;25.40;;;6.00;99.90;;;;;;5013570;27;20055;-70
2024/01/30 03:08:28;;;;;;;26.70;24.00;;;6.00;99.90;;;;;;5025809;27;20127;-70
2024/01/30 03:10:54;;;;;;;28.88;26.15;;;6.00;99.90;;;;;;5041985;27;20487;-70
2024/01/30 03:13:20;;;;;;;27.38;24.52;;;6.10;99.90;;;;;;5023305;27;20136;-70
2024/01/30 03:15:45;;;;;;;28.15;25.48;;;6.10;99.90;;;;;;5036426;27;20033;-70
2024/01/30 03:18:11;;;;;;;27.98;25.05;;;6.10;99.90;;;;;;5039962;27;20092;-70
2024/01/30 03:20:37;;;;;;;28.02;25.23;;;6.10;99.90;;;;;;5038219;27;20473;-70
2024/01/30 03:23:03;;;;;;;28.65;25.92;;;6.10;99.90;;;;;;5024116;28;20279;-70
2024/01/30 03:25:28;;;;;;;25.98;23.45;;;6.10;99.90;;;;;;5041432;27;20041;-70
2024/01/30 03:27:54;;;;;;;25.92;23.23;;;6.10;99.90;;;;;;5025682;28;20131;-70
2024/01/30 03:30:20;;;;;;;26.95;24.20;;;6.10;99.90;;;;;;5048959;27;20543;-70
2024/01/30 03:32:46;;;;;;;26.63;24.02;;;6.10;99.90;;;;;;5052290;27;20033;-70
2024/01/30 03:35:11;;;;;;;25.85;23.42;;;6.10;99.90;;;;;;5048128;27;20491;-70
2024/01/30 03:37:37;;;;;;;26.52;23.58;;;6.10;99.90;;;;;;5041286;27;20041;-70
2024/01/30 03:40:03;;;;;;;26.58;23.98;;;6.10;99.90;;;;;;5024063;27;20138;-70
2024/01/30 03:42:29;;;;;;;29.25;23.83;;;6.20;99.90;;;;;;5042710;27;20090;-70
2024/01/30 03:44:56;;;;;;;25.50;23.00;;;6.20;99.90;;;;;;5035184;27;20041;-70
2024/01/30 03:47:22;;;;;;;25.92;23.42;;;6.20;99.90;;;;;;5040743;27;20867;-73
2024/01/30 03:49:48;;;;;;;26.27;23.75;;;6.20;99.90;;;;;;5027600;27;20144;-74
2024/01/30 03:52:14;;;;;;;27.73;24.98;;;6.20;99.90;;;;;;5025769;27;20106;-73
2024/01/30 03:54:39;;;;;;;27.75;24.13;;;6.20;99.90;;;;;;5036823;27;20633;-74
2024/01/30 03:57:05;;;;;;;27.05;23.52;;;6.20;99.90;;;;;;5023903;28;20045;-74
2024/01/30 03:59:31;;;;;;;25.25;22.95;;;6.30;99.90;;;;;;5035676;27;20376;-70
2024/01/30 04:01:57;;;;;;;27.33;24.88;;;6.30;99.90;;;;;;5020205;27;20922;-70
2024/01/30 04:04:23;;;;;;;27.35;24.58;;;6.30;99.90;;;;;;5037300;27;20654;-70
2024/01/30 04:06:48;;;;;;;26.85;24.05;;;6.30;99.90;;;;;;5048160;27;20171;-73
2024/01/30 04:09:14;;;;;;;27.58;23.20;;;6.30;99.90;;;;;;5028078;27;20045;-74
2024/01/30 04:11:41;;;;;;;24.42;22.10;;;6.40;99.90;;;;;;5031956;27;20040;-73
2024/01/30 04:14:07;;;;;;;25.73;23.13;;;6.40;99.90;;;;;;5040640;27;20053;-73
2024/01/30 04:16:33;;;;;;;25.13;22.60;;;6.30;99.90;;;;;;5050138;27;20040;-73
2024/01/30 04:18:59;;;;;;;26.05;23.65;;;6.40;99.90;;;;;;5025943;27;20511;-73
2024/01/30 04:21:25;;;;;;;25.02;22.50;;;6.40;99.90;;;;;;5034656;27;20048;-73
2024/01/30 04:23:51;;;;;;;26.25;23.83;;;6.40;99.90;;;;;;5034673;27;20578;-69
2024/01/30 04:26:17;;;;;;;26.52;23.83;;;6.50;99.90;;;;;;5047878;27;20411;-70
2024/01/30 04:28:44;;;;;;;25.15;22.40;;;6.50;99.90;;;;;;5038244;27;20041;-69
2024/01/30 04:31:10;;;;;;;25.25;22.73;;;6.50;99.90;;;;;;5045864;27;20057;-69
2024/01/30 04:33:36;;;;;;;25.48;22.85;;;6.50;99.90;;;;;;5039649;27;20039;-69
2024/01/30 04:36:03;;;;;;;26.80;24.05;;;6.50;99.90;;;;;;5027275;27;20045;-69
2024/01/30 04:38:29;;;;;;;23.33;21.23;;;6.50;99.90;;;;;;5041852;27;20087;-73
2024/01/30 04:40:55;;;;;;;24.92;22.48;;;6.60;99.90;;;;;;5032234;27;20037;-73
2024/01/30 04:43:21;;;;;;;25.30;22.70;;;6.50;99.90;;;;;;5043055;27;20494;-69
2024/01/30 04:45:47;;;;;;;23.98;21.58;;;6.50;99.90;;;;;;5034780;27;20070;-69
2024/01/30 04:48:13;;;;;;;23.92;21.48;;;6.50;99.90;;;;;;5048838;27;20049;-69
2024/01/30 04:50:39;;;;;;;22.98;20.77;;;6.60;99.90;;;;;;5037448;27;20044;-73
2024/01/30 04:53:05;;;;;;;24.02;21.63;;;6.60;99.90;;;;;;5038364;27;20041;-72
2024/01/30 04:55:31;;;;;;;22.73;20.33;;;6.70;99.90;;;;;;5036445;27;20052;-73
2024/01/30 04:57:56;;;;;;;24.10;21.90;;;6.70;99.90;;;;;;5040354;27;20084;-69
2024/01/30 05:00:22;;;;;;;23.30;20.80;;;6.70;99.90;;;;;;5022186;27;20045;-69
2024/01/30 05:02:48;;;;;;;22.90;20.50;;;6.70;99.90;;;;;;5039114;27;20070;-69
2024/01/30 05:05:14;;;;;;;22.63;20.42;;;6.80;99.90;;;;;;5017695;27;20046;-70
2024/01/30 05:07:41;;;;;;;22.25;19.90;;;6.80;99.90;;;;;;5017201;28;20049;-69
2024/01/30 05:10:08;;;;;;;23.00;20.70;;;6.80;99.90;;;;;;5031801;27;20041;-70
2024/01/30 05:12:34;;;;;;;22.73;20.52;;;6.80;99.90;;;;;;5037571;27;20045;-69
2024/01/30 05:14:59;;;;;;;22.17;19.88;;;6.90;99.90;;;;;;5044385;27;20539;-69
2024/01/30 05:17:25;;;;;;;23.45;21.17;;;6.90;99.90;;;;;;5036222;27;20562;-69
2024/01/30 05:19:51;;;;;;;21.33;19.30;;;6.90;99.90;;;;;;5036517;27;20045;-69
2024/01/30 05:22:18;;;;;;;21.75;19.63;;;6.90;99.90;;;;;;5038087;27;20499;-69
2024/01/30 05:24:44;;;;;;;22.50;20.08;;;6.90;99.90;;;;;;5036800;27;20563;-69
2024/01/30 05:27:10;;;;;;;22.92;20.23;;;6.90;99.90;;;;;;5021634;28;20045;-73
2024/01/30 05:29:36;;;;;;;21.00;18.83;;;7.00;99.90;;;;;;5019285;27;20241;-72
2024/01/30 05:32:03;;;;;;;25.10;22.40;;;7.00;99.90;;;;;;5042916;27;20047;-73
2024/01/30 05:34:32;;;;;;;23.33;21.02;;;7.00;99.90;;;;;;5032326;27;20037;-73
2024/01/30 05:36:58;;;;;;;22.45;20.23;;;7.00;99.90;;;;;;5042691;27;20056;-73
2024/01/30 05:39:23;;;;;;;23.17;19.75;;;7.00;99.90;;;;;;5039411;27;20136;-73
2024/01/30 05:41:49;;;;;;;21.77;19.67;;;7.00;99.90;;;;;;5034917;27;20116;-73
2024/01/30 05:44:21;;;;;;;22.02;19.73;;;7.00;99.90;;;;;;5039364;27;20132;-73
2024/01/30 05:46:47;;;;;;;23.33;20.90;;;7.00;99.90;;;;;;5038215;27;20072;-73
2024/01/30 05:49:12;;;;;;;21.83;19.63;;;7.10;99.90;;;;;;5038803;27;20080;-73
2024/01/30 05:51:38;;;;;;;21.27;18.92;;;7.10;99.90;;;;;;5036894;27;20098;-72
2024/01/30 05:54:04;;;;;;;21.67;19.58;;;7.10;99.90;;;;;;5036871;27;20437;-74
2024/01/30 05:56:30;;;;;;;21.70;19.35;;;7.10;99.90;;;;;;5042276;27;20561;-73
2024/01/30 05:58:56;;;;;;;22.10;19.77;;;7.10;99.90;;;;;;5047415;27;20048;-74
2024/01/30 06:01:22;;;;;;;21.40;19.30;;;7.10;99.90;;;;;;5037597;27;21481;-74
2024/01/30 06:03:48;;;;;;;21.15;19.17;;;7.20;99.90;;;;;;5047757;27;20580;-70
2024/01/30 06:06:13;;;;;;;21.52;19.33;;;7.20;99.90;;;;;;5028778;28;20049;-73
2024/01/30 06:08:39;;;;;;;21.92;19.63;;;7.20;99.90;;;;;;5046084;27;20128;-73
2024/01/30 06:11:05;;;;;;;21.63;19.50;;;7.30;99.90;;;;;;5044437;27;20515;-74
2024/01/30 06:13:31;;;;;;;21.42;19.02;;;7.30;99.90;;;;;;5021072;27;20507;-70
2024/01/30 06:15:57;;;;;;;20.70;18.60;;;7.30;99.90;;;;;;5022165;28;20831;-70
2024/01/30 06:18:23;;;;;;;19.90;17.85;;;7.40;99.90;;;;;;5038126;27;20060;-70
2024/01/30 06:20:49;;;;;;;20.27;18.17;;;7.40;99.90;;;;;;5022226;27;20041;-70
2024/01/30 06:23:14;;;;;;;21.23;18.40;;;7.40;99.90;;;;;;5023920;27;20525;-69
2024/01/30 06:25:41;;;;;;;20.75;18.70;;;7.50;99.90;;;;;;5042212;27;20037;-70
2024/01/30 06:28:06;;;;;;;21.35;19.05;;;7.50;99.90;;;;;;5040485;27;20447;-70
2024/01/30 06:30:32;;;;;;;20.90;18.67;;;7.50;99.90;;;;;;5036364;27;20106;-70
2024/01/30 06:32:58;;;;;;;19.58;17.58;;;7.50;99.90;;;;;;5044289;27;20414;-70
2024/01/30 06:35:24;;;;;;;20.75;18.65;;;7.50;99.90;;;;;;5021915;27;20713;-71
2024/01/30 06:37:49;;;;;;;19.25;17.35;;;7.50;99.90;;;;;;5043190;27;20045;-70
2024/01/30 06:40:15;;;;;;;21.45;18.00;;;7.50;99.90;;;;;;5040538;27;20048;-70
2024/01/30 06:42:41;;;;;;;19.75;17.70;;;7.50;99.90;;;;;;5038495;27;20531;-70
2024/01/30 06:45:08;;;;;;;21.20;18.83;;;7.60;99.90;;;;;;5025789;28;20041;-73
2024/01/30 06:47:33;;;;;;;20.55;18.52;;;7.50;99.90;;;;;;5039447;27;20072;-74
2024/01/30 06:49:59;;;;;;;19.08;16.98;;;7.50;99.90;;;;;;5040322;27;20103;-74
2024/01/30 06:52:25;;;;;;;20.13;18.15;;;7.50;99.90;;;;;;5024429;27;20056;-70
2024/01/30 06:54:51;;;;;;;18.95;16.95;;;7.50;99.90;;;;;;5042203;27;20042;-70
2024/01/30 06:57:16;;;;;;;20.50;18.25;;;7.50;99.90;;;;;;5041261;27;20044;-70
2024/01/30 06:59:43;;;;;;;18.75;16.95;;;7.50;99.90;;;;;;5047408;27;20048;-73
2024/01/30 07:02:09;;;;;;;18.50;16.70;;;7.60;99.90;;;;;;5021965;27;20042;-70
2024/01/30 07:04:39;;;;;;;18.55;16.55;;;7.60;99.90;;;;;;5051438;27;20074;-70
2024/01/30 07:07:06;;;;;;;20.02;18.02;;;7.60;99.90;;;;;;5045759;27;20075;-70
2024/01/30 07:09:31;;;;;;;18.35;16.55;;;7.60;99.90;;;;;;5026416;28;20065;-70
2024/01/30 07:12:03;;;;;;;19.02;16.90;;;7.60;99.90;;;;;;5046427;27;20061;-69
2024/01/30 07:14:29;;;;;;;20.05;17.95;;;7.60;99.90;;;;;;5044016;27;20080;-73
2024/01/30 07:16:54;;;;;;;21.15;18.95;;;7.60;99.90;;;;;;5030586;28;20060;-73
2024/01/30 07:19:20;;;;;;;19.08;17.08;;;7.60;99.90;;;;;;5046211;27;20052;-73
2024/01/30 07:21:46;;;;;;;19.90;17.70;;;7.70;99.90;;;;;;5019974;27;20037;-73
2024/01/30 07:24:12;;;;;;;19.20;17.33;;;7.60;99.90;;;;;;5049734;27;20052;-73
2024/01/30 07:26:38;;;;;;;19.92;17.67;;;7.60;99.90;;;;;;5022937;27;20048;-73
2024/01/30 07:29:03;;;;;;;18.90;17.00;;;7.60;99.90;;;;;;5039161;27;20107;-73
2024/01/30 07:31:29;;;;;;;18.90;17.00;;;7.60;99.90;;;;;;5023860;28;20147;-73
2024/01/30 07:33:55;;;;;;;18.52;16.63;;;7.60;99.90;;;;;;5037555;27;20045;-73
2024/01/30 07:36:21;;;;;;;21.65;17.77;;;7.60;99.90;;;;;;5036536;27;20502;-72
2024/01/30 07:38:46;;;;;;;19.95;17.77;;;7.70;99.90;;;;;;5029103;27;20554;-78
2024/01/30 07:41:12;;;;;;;18.60;16.75;;;7.70;99.90;;;;;;5048274;27;20095;-79
2024/01/30 07:43:39;;;;;;;19.85;17.77;;;7.80;99.90;;;;;;5035478;27;20407;-78
2024/01/30 07:46:06;;;;;;;18.50;16.77;;;7.80;99.90;;;;;;5037821;27;20041;-72
2024/01/30 07:48:35;;;;;;;19.77;17.77;;;7.70;99.90;;;;;;5037504;27;20083;-71
2024/01/30 07:51:02;;;;;;;19.52;17.50;;;7.80;99.90;;;;;;5051036;27;20048;-72
2024/01/30 07:53:28;;;;;;;20.33;17.70;;;7.80;99.90;;;;;;5040055;27;20041;-72
2024/01/30 07:55:54;;;;;;;19.40;17.38;;;7.80;99.90;;;;;;5025682;27;20436;-72
2024/01/30 07:58:20;;;;;;;19.65;17.65;;;7.80;99.90;;;;;;5042683;27;20912;-72
2024/01/30 08:00:46;;;;;;;18.17;16.27;;;7.80;99.90;;;;;;5039820;27;20407;-73
2024/01/30 08:03:11;;;;;;;18.98;16.90;;;7.80;99.90;;;;;;5026819;27;20164;-73
2024/01/30 08:05:39;;;;;;;19.63;17.30;;;7.90;99.90;;;;;;5025129;27;20037;-72
2024/01/30 08:08:05;;;;;;;18.92;16.98;;;7.90;99.90;;;;;;5031283;27;20048;-78
2024/01/30 08:10:33;;;;;;;19.83;17.73;;;7.90;99.90;;;;;;5042663;27;20037;-79
2024/01/30 08:12:59;;;;;;;18.35;16.48;;;7.90;99.90;;;;;;5039808;27;20173;-73
2024/01/30 08:15:25;;;;;;;18.88;16.88;;;8.00;99.90;;;;;;5024006;27;20136;-73
2024/01/30 08:17:55;;;;;;;17.95;16.05;;;8.00;99.90;;;;;;5045269;27;20037;-73
2024/01/30 08:20:21;;;;;;;19.02;17.02;;;8.10;99.90;;;;;;5037931;27;20041;-72
2024/01/30 08:22:47;;;;;;;17.70;15.85;;;8.10;99.90;;;;;;5025725;28;20052;-73
2024/01/30 08:25:12;;;;;;;18.92;16.98;;;8.10;99.90;;;;;;5024060;27;20128;-73
2024/01/30 08:27:38;;;;;;;18.23;16.17;;;8.10;99.90;;;;;;5039777;27;20041;-73
2024/01/30 08:30:06;;;;;;;17.17;15.48;;;8.20;99.90;;;;;;5037397;27;20401;-73
2024/01/30 08:32:32;;;;;;;18.10;16.20;;;8.20;99.90;;;;;;5025236;27;20075;-73
2024/01/30 08:35:04;;;;;;;17.70;15.80;;;8.30;99.90;;;;;;5026366;27;20040;-72
2024/01/30 08:37:30;;;;;;;18.58;16.55;;;8.30;99.90;;;;;;5025933;28;20041;-72
2024/01/30 08:39:58;;;;;;;18.30;16.30;;;8.30;99.90;;;;;;5023226;27;20037;-72
2024/01/30 08:42:25;;;;;;;16.67;15.05;;;8.40;99.90;;;;;;5039900;27;20074;-73
2024/01/30 08:44:52;;;;;;;18.70;16.23;;;8.30;99.90;;;;;;5020715;28;20538;-72
2024/01/30 08:47:18;;;;;;;18.42;16.45;;;8.30;99.90;;;;;;5034563;27;20154;-72
2024/01/30 08:49:44;;;;;;;17.88;16.02;;;8.30;99.90;;;;;;5030282;27;20043;-72
2024/01/30 08:52:11;;;;;;;18.05;15.18;;;8.40;99.90;;;;;;5042131;27;21574;-73
2024/01/30 08:54:37;;;;;;;17.20;15.40;;;8.50;99.90;;;;;;5027609;28;20044;-73
2024/01/30 08:57:04;;;;;;;19.65;16.58;;;8.50;99.90;;;;;;5031438;27;20511;-78
2024/01/30 08:59:30;;;;;;;17.63;15.68;;;8.60;99.90;;;;;;5039666;27;20079;-72
2024/01/30 09:01:59;;;;;;;19.48;16.00;;;8.60;99.90;;;;;;5041861;27;20491;-72
2024/01/30 09:04:25;;;;;;;16.55;14.95;;;8.60;99.90;;;;;;5047079;27;20052;-72
2024/01/30 09:06:50;;;;;;;19.90;15.63;;;8.60;99.90;;;;;;5037832;27;20398;-73
2024/01/30 09:09:17;;;;;;;16.98;15.18;;;8.60;99.90;;;;;;5034373;27;20045;-72
2024/01/30 09:11:43;;;;;;;16.95;15.15;;;8.70;99.90;;;;;;5018817;28;20388;-73
2024/01/30 09:14:09;;;;;;;17.45;15.70;;;8.60;99.90;;;;;;5036818;27;20079;-72
2024/01/30 09:16:35;;;;;;;17.63;15.82;;;8.60;99.90;;;;;;5049610;27;20464;-73
2024/01/30 09:19:04;;;;;;;16.27;14.63;;;8.70;99.90;;;;;;5046635;27;20518;-73
2024/01/30 09:21:30;;;;;;;17.70;15.82;;;8.70;99.90;;;;;;5039341;27;20053;-72
2024/01/30 09:24:03;;;;;;;17.05;14.55;;;8.70;99.90;;;;;;5048758;27;20045;-73
2024/01/30 09:26:29;;;;;;;18.70;15.65;;;8.80;99.90;;;;;;5033911;27;20084;-73
2024/01/30 09:28:55;;;;;;;20.45;16.27;;;8.80;99.90;;;;;;5039694;27;20064;-73
2024/01/30 09:31:24;;;;;;;18.15;15.82;;;8.80;99.90;;;;;;5036801;27;20049;-73
2024/01/30 09:33:51;;;;;;;18.48;15.68;;;8.90;99.90;;;;;;5021069;28;20128;-73
2024/01/30 09:36:18;;;;;;;17.90;15.45;;;8.90;99.90;;;;;;5034644;27;20052;-73
2024/01/30 09:38:44;;;;;;;18.73;15.25;;;8.90;99.90;;;;;;5023289;28;20045;-73
2024/01/30 09:41:11;;;;;;;18.02;16.02;;;9.00;99.90;;;;;;5040950;27;20037;-73
2024/01/30 09:43:39;;;;;;;17.70;14.55;;;9.00;99.90;;;;;;5027934;27;20510;-73
2024/01/30 09:46:07;;;;;;;18.52;14.77;;;9.10;99.90;;;;;;5030695;28;20082;-79
2024/01/30 09:48:34;;;;;;;17.80;15.88;;;9.10;99.90;;;;;;5039959;27;20064;-79
2024/01/30 09:51:01;;;;;;;16.95;15.25;;;9.20;99.90;;;;;;5033685;28;20133;-73
2024/01/30 09:53:27;;;;;;;16.83;14.35;;;9.20;99.90;;;;;;5041166;27;20467;-73
2024/01/30 09:55:53;;;;;;;17.08;15.38;;;9.30;99.90;;;;;;5043634;27;20052;-78
2024/01/30 09:58:18;;;;;;;16.98;14.43;;;9.30;99.90;;;;;;5038777;27;20045;-73
2024/01/30 10:00:44;;;;;;;17.17;14.48;;;9.40;99.90;;;;;;5034444;27;20033;-79
2024/01/30 10:03:10;;;;;;;16.15;14.23;;;9.40;99.90;;;;;;5023834;28;20029;-79
2024/01/30 10:05:39;;;;;;;17.67;14.02;;;9.50;99.90;;;;;;5045387;27;20033;-79
2024/01/30 10:08:08;;;;;;;17.70;14.88;;;9.50;99.90;;;;;;5039725;27;20064;-73
2024/01/30 10:10:35;;;;;;;18.40;14.15;;;9.60;99.90;;;;;;5035879;27;20952;-73
2024/01/30 10:13:03;;;;;;;17.13;14.07;;;9.60;99.90;;;;;;5023261;27;20048;-73
2024/01/30 10:15:29;;;;;;;16.38;14.32;;;9.60;99.90;;;;;;5040815;27;20055;-73
2024/01/30 10:17:55;;;;;;;20.33;14.48;;;9.70;99.90;;;;;;5027090;27;20033;-73
2024/01/30 10:20:22;;;;;;;15.30;13.70;;;9.70;99.90;;;;;;5037768;27;20056;-73
2024/01/30 10:22:48;;;;;;;18.08;15.15;;;9.80;99.90;;;;;;5025022;28;20380;-73
2024/01/30 10:25:16;;;;;;;18.30;14.00;;;9.90;99.90;;;;;;5026639;27;20431;-73
2024/01/30 10:27:42;;;;;;;16.27;13.70;;;9.90;99.90;;;;;;5026923;27;20090;-73
2024/01/30 10:30:08;;;;;;;19.13;14.95;;;10.00;99.90;;;;;;5041440;27;20455;-73
2024/01/30 10:32:34;;;;;;;19.23;14.63;;;10.00;99.90;;;;;;5037285;27;20037;-73
2024/01/30 10:35:00;;;;;;;16.17;13.98;;;10.10;99.90;;;;;;5044083;27;20113;-73
2024/01/30 10:37:29;;;;;;;17.20;14.93;;;10.20;99.90;;;;;;5032231;27;20051;-72
2024/01/30 10:39:58;;;;;;;16.98;13.80;;;10.20;99.90;;;;;;5025167;28;20040;-73
2024/01/30 10:42:27;;;;;;;17.85;14.48;;;10.20;99.90;;;;;;5041877;27;20550;-73
2024/01/30 10:45:06;;;;;;;19.23;14.68;;;10.30;99.90;;;;;;5038855;27;20040;-73
2024/01/30 10:47:36;;;;;;;22.13;14.52;;;10.30;99.90;;;;;;5022703;28;20034;-73
2024/01/30 10:50:05;;;;;;;16.90;14.82;;;10.30;99.90;;;;;;5040601;27;20150;-79
2024/01/30 10:52:32;;;;;;;17.20;15.30;;;10.30;99.90;;;;;;5120600;27;20045;-73
2024/01/30 10:54:59;;;;;;;16.45;14.55;;;10.30;99.90;;;;;;5040915;27;20329;-73
2024/01/30 10:57:26;;;;;;;18.15;15.45;;;10.30;99.90;;;;;;5038429;27;20057;-73
2024/01/30 10:59:58;;;;;;;17.52;14.43;;;10.30;99.90;;;;;;5043231;27;20037;-79
2024/01/30 11:02:25;;;;;;;18.65;14.10;;;10.30;99.90;;;;;;5032729;27;20632;-79
2024/01/30 11:04:58;;;;;;;18.00;14.45;;;10.30;99.90;;;;;;5041903;27;20124;-80
2024/01/30 11:07:29;;;;;;;17.67;14.57;;;10.30;99.90;;;;;;5026541;27;20068;-79
2024/01/30 11:09:58;;;;;;;18.60;14.68;;;10.30;99.90;;;;;;5035985;27;20372;-73
2024/01/30 11:12:24;;;;;;;16.02;14.32;;;10.30;99.90;;;;;;5025609;27;20639;-73
2024/01/30 11:15:04;;;;;;;18.95;15.65;;;10.30;99.90;;;;;;5038473;27;20251;-73
2024/01/30 11:17:44;;;;;;;18.83;15.43;;;10.30;99.90;;;;;;5039101;27;20044;-73
2024/01/30 11:20:19;;;;;;;20.65;15.50;;;10.30;99.90;;;;;;5044174;27;20052;-73
2024/01/30 11:22:52;;;;;;;20.70;15.93;;;10.40;99.90;;;;;;5052024;27;20052;-73
2024/01/30 11:25:21;;;;;;;19.88;16.45;;;10.40;99.90;;;;;;5024085;28;20045;-72
2024/01/30 11:27:49;;;;;;;22.73;15.82;;;10.40;99.90;;;;;;5042076;27;20049;-78
2024/01/30 11:30:36;;;;;;;21.38;17.15;;;10.40;99.90;;;;;;5031386;27;20113;-72
2024/01/30 11:33:11;;;;;;;23.40;17.38;;;10.40;99.90;;;;;;5036557;27;20072;-72
2024/01/30 11:35:39;;;;;;;21.45;17.60;;;10.40;99.90;;;;;;5041838;27;20368;-72
2024/01/30 11:38:06;;;;;;;21.83;16.33;;;10.40;99.90;;;;;;5034995;27;20044;-73
2024/01/30 11:40:34;;;;;;;22.85;17.38;;;10.50;99.90;;;;;;5037576;27;20562;-78
2024/01/30 11:43:04;;;;;;;19.83;16.77;;;10.50;99.90;;;;;;5022619;27;20446;-79
2024/01/30 11:45:31;;;;;;;22.33;17.92;;;10.50;99.90;;;;;;5039700;27;20503;-79
2024/01/30 11:47:57;;;;;;;20.83;17.77;;;10.60;99.90;;;;;;5038622;27;20457;-78
2024/01/30 11:50:25;;;;;;;23.67;17.42;;;10.60;99.90;;;;;;5040428;27;20039;-79
2024/01/30 11:52:51;;;;;;;19.40;17.15;;;10.70;99.90;;;;;;5030313;27;20046;-73
2024/01/30 11:55:17;;;;;;;21.80;17.77;;;10.70;99.90;;;;;;5040520;27;20056;-73
2024/01/30 11:57:46;;;;;;;19.33;17.25;;;10.70;99.90;;;;;;5037368;27;20082;-73
2024/01/30 12:00:16;;;;;;;19.85;17.75;;;10.70;99.90;;;;;;5041352;27;20053;-73
2024/01/30 12:02:43;;;;;;;21.30;17.35;;;10.80;99.90;;;;;;5025118;27;20132;-73
2024/01/30 12:05:09;;;;;;;23.40;18.02;;;10.80;99.90;;;;;;5046235;27;20452;-73
2024/01/30 12:07:38;;;;;;;20.27;18.15;;;10.80;99.90;;;;;;5034734;27;20040;-73
2024/01/30 12:10:05;;;;;;;21.48;17.38;;;10.80;99.90;;;;;;5034781;27;20152;-72
2024/01/30 12:12:31;;;;;;;23.77;14.55;;;10.80;99.90;;;;;;5045451;27;20049;-72
2024/01/30 12:14:57;;;;;;;21.38;13.40;;;10.80;99.90;;;;;;5040045;27;20052;-73
2024/01/30 12:17:36;;;;;;;21.17;13.43;;;10.80;99.90;;;;;;5039293;27;20045;-73
2024/01/30 12:20:14;;;;;;;17.58;12.90;;;10.70;99.90;;;;;;5037148;27;20072;-73
2024/01/30 12:22:44;;;;;;;18.88;12.45;;;10.60;99.90;;;;;;5027003;28;20045;-73
2024/01/30 12:25:15;;;;;;;16.38;10.20;;;10.50;99.90;;;;;;5035242;27;20045;-73
2024/01/30 12:27:45;;;;;;;;;;;10.50;99.90;;;;;;5039590;27;20143;-73
2024/01/30 12:30:13;;;;;;;12.52;7.50;;;10.40;99.90;;;;;;5041768;27;19986;-73
2024/01/30 12:32:45;;;;;;;11.75;6.45;;;10.50;99.90;;;;;;5040517;27;20123;-72